sensor_id;sensor_type;location;lat;lon;timestamp;temperature;humidity
82126;DHT22;71668;51.400;6.758;2023-07-29T00:01:40;19.90;80.60
82126;DHT22;71668;51.400;6.758;2023-07-29T00:04:09;19.90;80.60
82126;DHT22;71668;51.400;6.758;2023-07-29T00:06:36;19.90;80.60
82126;DHT22;71668;51.400;6.758;2023-07-29T00:09:03;19.90;80.60
82126;DHT22;71668;51.400;6.758;2023-07-29T00:11:30;20.00;80.60
82126;DHT22;71668;51.400;6.758;2023-07-29T00:14:03;20.00;80.40
82126;DHT22;71668;51.400;6.758;2023-07-29T00:16:30;20.00;80.40
82126;DHT22;71668;51.400;6.758;2023-07-29T00:18:57;20.00;80.30
82126;DHT22;71668;51.400;6.758;2023-07-29T00:21:24;20.00;80.30
82126;DHT22;71668;51.400;6.758;2023-07-29T00:23:52;19.90;80.30
82126;DHT22;71668;51.400;6.758;2023-07-29T00:26:22;19.90;80.40
82126;DHT22;71668;51.400;6.758;2023-07-29T00:28:49;19.90;80.50
82126;DHT22;71668;51.400;6.758;2023-07-29T00:31:16;19.80;80.60
82126;DHT22;71668;51.400;6.758;2023-07-29T00:33:44;19.80;80.60
82126;DHT22;71668;51.400;6.758;2023-07-29T00:36:11;19.80;80.70
82126;DHT22;71668;51.400;6.758;2023-07-29T00:38:38;19.90;80.80
82126;DHT22;71668;51.400;6.758;2023-07-29T00:41:05;19.90;80.50
82126;DHT22;71668;51.400;6.758;2023-07-29T00:43:32;20.00;80.40
82126;DHT22;71668;51.400;6.758;2023-07-29T00:46:01;20.00;80.30
82126;DHT22;71668;51.400;6.758;2023-07-29T00:48:28;20.10;80.30
82126;DHT22;71668;51.400;6.758;2023-07-29T00:50:56;20.10;80.10
82126;DHT22;71668;51.400;6.758;2023-07-29T00:53:23;20.10;80.00
82126;DHT22;71668;51.400;6.758;2023-07-29T00:55:50;20.10;80.00
82126;DHT22;71668;51.400;6.758;2023-07-29T00:58:17;20.10;79.90
82126;DHT22;71668;51.400;6.758;2023-07-29T01:00:44;20.10;80.00
82126;DHT22;71668;51.400;6.758;2023-07-29T01:03:11;20.20;79.90
82126;DHT22;71668;51.400;6.758;2023-07-29T01:06:16;20.20;79.90
82126;DHT22;71668;51.400;6.758;2023-07-29T01:08:52;20.30;79.80
82126;DHT22;71668;51.400;6.758;2023-07-29T01:16:34;20.40;79.30
82126;DHT22;71668;51.400;6.758;2023-07-29T01:19:06;20.40;79.40
82126;DHT22;71668;51.400;6.758;2023-07-29T01:21:37;20.30;79.20
82126;DHT22;71668;51.400;6.758;2023-07-29T01:24:04;20.30;79.30
82126;DHT22;71668;51.400;6.758;2023-07-29T01:26:32;20.30;79.30
82126;DHT22;71668;51.400;6.758;2023-07-29T01:28:59;20.30;79.30
82126;DHT22;71668;51.400;6.758;2023-07-29T01:31:29;20.40;79.40
82126;DHT22;71668;51.400;6.758;2023-07-29T01:34:01;20.30;79.30
82126;DHT22;71668;51.400;6.758;2023-07-29T01:36:33;20.40;79.50
82126;DHT22;71668;51.400;6.758;2023-07-29T01:39:05;20.40;79.50
82126;DHT22;71668;51.400;6.758;2023-07-29T01:41:32;20.40;79.40
82126;DHT22;71668;51.400;6.758;2023-07-29T01:44:00;20.30;79.50
82126;DHT22;71668;51.400;6.758;2023-07-29T01:46:33;20.20;79.70
82126;DHT22;71668;51.400;6.758;2023-07-29T01:49:00;20.30;79.90
82126;DHT22;71668;51.400;6.758;2023-07-29T01:51:29;20.30;79.80
82126;DHT22;71668;51.400;6.758;2023-07-29T01:53:56;20.40;79.80
82126;DHT22;71668;51.400;6.758;2023-07-29T01:56:23;20.40;79.70
82126;DHT22;71668;51.400;6.758;2023-07-29T01:58:53;20.40;79.60
82126;DHT22;71668;51.400;6.758;2023-07-29T02:01:20;20.50;79.50
82126;DHT22;71668;51.400;6.758;2023-07-29T02:03:47;20.50;79.30
82126;DHT22;71668;51.400;6.758;2023-07-29T02:06:21;20.50;79.50
82126;DHT22;71668;51.400;6.758;2023-07-29T02:08:48;20.50;79.50
82126;DHT22;71668;51.400;6.758;2023-07-29T02:11:15;20.50;79.50
82126;DHT22;71668;51.400;6.758;2023-07-29T02:13:42;20.50;79.40
82126;DHT22;71668;51.400;6.758;2023-07-29T02:16:10;20.40;79.40
82126;DHT22;71668;51.400;6.758;2023-07-29T02:18:37;20.40;79.70
82126;DHT22;71668;51.400;6.758;2023-07-29T02:21:04;20.40;79.70
82126;DHT22;71668;51.400;6.758;2023-07-29T02:23:31;20.40;79.80
82126;DHT22;71668;51.400;6.758;2023-07-29T02:25:58;20.40;79.90
82126;DHT22;71668;51.400;6.758;2023-07-29T02:28:25;20.40;79.90
82126;DHT22;71668;51.400;6.758;2023-07-29T02:31:12;20.50;80.00
82126;DHT22;71668;51.400;6.758;2023-07-29T02:33:39;20.50;79.80
82126;DHT22;71668;51.400;6.758;2023-07-29T02:36:06;20.50;79.70
82126;DHT22;71668;51.400;6.758;2023-07-29T02:38:33;20.60;79.70
82126;DHT22;71668;51.400;6.758;2023-07-29T02:41:00;20.60;79.70
82126;DHT22;71668;51.400;6.758;2023-07-29T02:43:27;20.50;79.50
82126;DHT22;71668;51.400;6.758;2023-07-29T02:45:54;20.60;79.60
82126;DHT22;71668;51.400;6.758;2023-07-29T02:48:20;20.60;79.50
82126;DHT22;71668;51.400;6.758;2023-07-29T02:50:47;20.60;79.30
82126;DHT22;71668;51.400;6.758;2023-07-29T02:53:14;20.60;79.30
82126;DHT22;71668;51.400;6.758;2023-07-29T02:55:41;20.60;79.20
82126;DHT22;71668;51.400;6.758;2023-07-29T02:58:08;20.60;79.10
82126;DHT22;71668;51.400;6.758;2023-07-29T03:00:35;20.60;79.00
82126;DHT22;71668;51.400;6.758;2023-07-29T03:03:02;20.60;79.00
82126;DHT22;71668;51.400;6.758;2023-07-29T03:05:29;20.60;79.00
82126;DHT22;71668;51.400;6.758;2023-07-29T03:07:58;20.60;78.90
82126;DHT22;71668;51.400;6.758;2023-07-29T03:10:25;20.60;78.90
82126;DHT22;71668;51.400;6.758;2023-07-29T03:12:55;20.60;78.80
82126;DHT22;71668;51.400;6.758;2023-07-29T03:15:25;20.60;78.70
82126;DHT22;71668;51.400;6.758;2023-07-29T03:17:52;20.60;78.70
82126;DHT22;71668;51.400;6.758;2023-07-29T03:20:20;20.60;78.70
82126;DHT22;71668;51.400;6.758;2023-07-29T03:22:46;20.60;78.60
82126;DHT22;71668;51.400;6.758;2023-07-29T03:25:13;20.60;78.60
82126;DHT22;71668;51.400;6.758;2023-07-29T03:27:40;20.60;78.60
82126;DHT22;71668;51.400;6.758;2023-07-29T03:30:07;20.50;78.60
82126;DHT22;71668;51.400;6.758;2023-07-29T03:32:35;20.50;78.70
82126;DHT22;71668;51.400;6.758;2023-07-29T03:35:02;20.50;78.50
82126;DHT22;71668;51.400;6.758;2023-07-29T03:37:29;20.50;78.60
82126;DHT22;71668;51.400;6.758;2023-07-29T03:39:55;20.50;78.60
82126;DHT22;71668;51.400;6.758;2023-07-29T03:42:22;20.50;78.50
82126;DHT22;71668;51.400;6.758;2023-07-29T03:44:49;20.50;78.40
82126;DHT22;71668;51.400;6.758;2023-07-29T03:47:16;20.50;78.40
82126;DHT22;71668;51.400;6.758;2023-07-29T03:49:44;20.50;78.40
82126;DHT22;71668;51.400;6.758;2023-07-29T03:52:11;20.50;78.30
82126;DHT22;71668;51.400;6.758;2023-07-29T03:54:38;20.50;78.20
82126;DHT22;71668;51.400;6.758;2023-07-29T03:57:05;20.50;78.20
82126;DHT22;71668;51.400;6.758;2023-07-29T03:59:32;20.50;78.30
82126;DHT22;71668;51.400;6.758;2023-07-29T04:01:59;20.50;78.20
82126;DHT22;71668;51.400;6.758;2023-07-29T04:04:26;20.50;78.20
82126;DHT22;71668;51.400;6.758;2023-07-29T04:06:53;20.50;78.20
82126;DHT22;71668;51.400;6.758;2023-07-29T04:09:20;20.40;78.00
82126;DHT22;71668;51.400;6.758;2023-07-29T04:11:47;20.40;78.10
82126;DHT22;71668;51.400;6.758;2023-07-29T04:14:13;20.40;78.20
82126;DHT22;71668;51.400;6.758;2023-07-29T04:16:40;20.30;78.20
82126;DHT22;71668;51.400;6.758;2023-07-29T04:19:07;20.30;78.30
82126;DHT22;71668;51.400;6.758;2023-07-29T04:21:34;20.30;78.20
82126;DHT22;71668;51.400;6.758;2023-07-29T04:24:01;20.20;78.10
82126;DHT22;71668;51.400;6.758;2023-07-29T04:26:28;20.20;77.90
82126;DHT22;71668;51.400;6.758;2023-07-29T04:28:55;20.20;77.90
82126;DHT22;71668;51.400;6.758;2023-07-29T04:31:22;20.20;77.60
82126;DHT22;71668;51.400;6.758;2023-07-29T04:33:48;20.20;77.50
82126;DHT22;71668;51.400;6.758;2023-07-29T04:36:16;20.20;77.40
82126;DHT22;71668;51.400;6.758;2023-07-29T04:38:44;20.20;77.20
82126;DHT22;71668;51.400;6.758;2023-07-29T04:41:11;20.20;77.00
82126;DHT22;71668;51.400;6.758;2023-07-29T04:43:38;20.20;76.80
82126;DHT22;71668;51.400;6.758;2023-07-29T04:46:07;20.20;76.70
82126;DHT22;71668;51.400;6.758;2023-07-29T04:48:35;20.20;76.50
82126;DHT22;71668;51.400;6.758;2023-07-29T04:51:02;20.20;76.20
82126;DHT22;71668;51.400;6.758;2023-07-29T04:53:29;20.30;76.20
82126;DHT22;71668;51.400;6.758;2023-07-29T04:55:56;20.30;75.80
82126;DHT22;71668;51.400;6.758;2023-07-29T04:58:23;20.30;76.20
82126;DHT22;71668;51.400;6.758;2023-07-29T05:00:49;20.20;75.60
82126;DHT22;71668;51.400;6.758;2023-07-29T05:03:17;20.20;75.80
82126;DHT22;71668;51.400;6.758;2023-07-29T05:05:44;20.20;75.60
82126;DHT22;71668;51.400;6.758;2023-07-29T05:08:11;20.30;75.20
82126;DHT22;71668;51.400;6.758;2023-07-29T05:10:38;20.50;74.80
82126;DHT22;71668;51.400;6.758;2023-07-29T05:13:05;20.60;74.60
82126;DHT22;71668;51.400;6.758;2023-07-29T05:15:32;20.80;74.00
82126;DHT22;71668;51.400;6.758;2023-07-29T05:17:59;20.90;73.50
82126;DHT22;71668;51.400;6.758;2023-07-29T05:20:26;20.90;72.60
82126;DHT22;71668;51.400;6.758;2023-07-29T05:22:53;21.00;72.80
82126;DHT22;71668;51.400;6.758;2023-07-29T05:25:20;21.00;72.00
82126;DHT22;71668;51.400;6.758;2023-07-29T05:27:47;21.00;71.80
82126;DHT22;71668;51.400;6.758;2023-07-29T05:30:13;21.00;71.40
82126;DHT22;71668;51.400;6.758;2023-07-29T05:32:40;20.90;70.60
82126;DHT22;71668;51.400;6.758;2023-07-29T05:35:07;20.90;69.80
82126;DHT22;71668;51.400;6.758;2023-07-29T05:37:37;20.80;69.50
82126;DHT22;71668;51.400;6.758;2023-07-29T05:40:05;20.80;69.20
82126;DHT22;71668;51.400;6.758;2023-07-29T05:42:33;20.80;69.00
82126;DHT22;71668;51.400;6.758;2023-07-29T05:45:00;20.80;67.80
82126;DHT22;71668;51.400;6.758;2023-07-29T05:47:28;20.80;67.30
82126;DHT22;71668;51.400;6.758;2023-07-29T05:49:55;20.80;67.20
82126;DHT22;71668;51.400;6.758;2023-07-29T05:52:22;20.80;66.80
82126;DHT22;71668;51.400;6.758;2023-07-29T05:54:48;20.90;66.70
82126;DHT22;71668;51.400;6.758;2023-07-29T05:57:15;20.90;66.30
82126;DHT22;71668;51.400;6.758;2023-07-29T05:59:42;20.90;66.00
82126;DHT22;71668;51.400;6.758;2023-07-29T06:02:09;20.90;65.80
82126;DHT22;71668;51.400;6.758;2023-07-29T06:04:35;20.80;65.70
82126;DHT22;71668;51.400;6.758;2023-07-29T06:07:02;20.90;65.80
82126;DHT22;71668;51.400;6.758;2023-07-29T06:09:29;20.90;65.60
82126;DHT22;71668;51.400;6.758;2023-07-29T06:11:56;21.00;65.30
82126;DHT22;71668;51.400;6.758;2023-07-29T06:14:23;21.20;65.20
82126;DHT22;71668;51.400;6.758;2023-07-29T06:16:50;21.40;64.60
82126;DHT22;71668;51.400;6.758;2023-07-29T06:19:19;21.60;64.00
82126;DHT22;71668;51.400;6.758;2023-07-29T06:21:46;21.80;62.90
82126;DHT22;71668;51.400;6.758;2023-07-29T06:24:13;21.80;63.10
82126;DHT22;71668;51.400;6.758;2023-07-29T06:26:40;21.80;62.30
82126;DHT22;71668;51.400;6.758;2023-07-29T06:29:07;21.80;62.00
82126;DHT22;71668;51.400;6.758;2023-07-29T06:31:34;21.80;61.70
82126;DHT22;71668;51.400;6.758;2023-07-29T06:34:00;22.00;61.50
82126;DHT22;71668;51.400;6.758;2023-07-29T06:36:27;22.90;60.70
82126;DHT22;71668;51.400;6.758;2023-07-29T06:38:54;23.70;58.30
82126;DHT22;71668;51.400;6.758;2023-07-29T06:41:21;23.90;57.30
82126;DHT22;71668;51.400;6.758;2023-07-29T06:43:49;24.20;56.70
82126;DHT22;71668;51.400;6.758;2023-07-29T06:46:16;25.70;54.50
82126;DHT22;71668;51.400;6.758;2023-07-29T06:48:42;27.90;49.00
82126;DHT22;71668;51.400;6.758;2023-07-29T06:51:09;28.50;47.10
82126;DHT22;71668;51.400;6.758;2023-07-29T06:53:36;28.70;46.20
82126;DHT22;71668;51.400;6.758;2023-07-29T06:56:03;28.50;45.80
82126;DHT22;71668;51.400;6.758;2023-07-29T06:58:31;27.90;46.10
82126;DHT22;71668;51.400;6.758;2023-07-29T07:00:58;27.40;46.90
82126;DHT22;71668;51.400;6.758;2023-07-29T07:03:25;27.00;47.50
82126;DHT22;71668;51.400;6.758;2023-07-29T07:05:52;27.40;47.60
82126;DHT22;71668;51.400;6.758;2023-07-29T07:08:19;29.10;45.10
82126;DHT22;71668;51.400;6.758;2023-07-29T07:10:47;30.10;42.20
82126;DHT22;71668;51.400;6.758;2023-07-29T07:13:14;30.40;42.10
82126;DHT22;71668;51.400;6.758;2023-07-29T07:15:41;31.40;39.60
82126;DHT22;71668;51.400;6.758;2023-07-29T07:18:08;31.50;38.50
82126;DHT22;71668;51.400;6.758;2023-07-29T07:20:36;30.90;38.30
82126;DHT22;71668;51.400;6.758;2023-07-29T07:23:03;30.50;38.80
82126;DHT22;71668;51.400;6.758;2023-07-29T07:25:32;29.90;39.90
82126;DHT22;71668;51.400;6.758;2023-07-29T07:27:59;29.40;40.00
82126;DHT22;71668;51.400;6.758;2023-07-29T07:30:25;29.70;40.10
82126;DHT22;71668;51.400;6.758;2023-07-29T07:32:52;31.50;38.60
82126;DHT22;71668;51.400;6.758;2023-07-29T07:35:19;33.10;36.20
82126;DHT22;71668;51.400;6.758;2023-07-29T07:37:46;32.80;35.10
82126;DHT22;71668;51.400;6.758;2023-07-29T07:40:13;33.10;35.10
82126;DHT22;71668;51.400;6.758;2023-07-29T07:42:40;33.10;34.80
82126;DHT22;71668;51.400;6.758;2023-07-29T07:45:07;32.40;34.70
82126;DHT22;71668;51.400;6.758;2023-07-29T07:47:34;31.80;35.20
82126;DHT22;71668;51.400;6.758;2023-07-29T07:50:01;31.40;35.90
82126;DHT22;71668;51.400;6.758;2023-07-29T07:52:28;31.20;36.20
82126;DHT22;71668;51.400;6.758;2023-07-29T07:54:55;30.80;36.60
82126;DHT22;71668;51.400;6.758;2023-07-29T07:57:22;31.00;36.90
82126;DHT22;71668;51.400;6.758;2023-07-29T07:59:49;32.40;36.30
82126;DHT22;71668;51.400;6.758;2023-07-29T08:02:16;34.00;34.30
82126;DHT22;71668;51.400;6.758;2023-07-29T08:04:42;35.40;32.20
82126;DHT22;71668;51.400;6.758;2023-07-29T08:07:10;36.50;30.40
82126;DHT22;71668;51.400;6.758;2023-07-29T08:09:36;37.00;29.60
82126;DHT22;71668;51.400;6.758;2023-07-29T08:12:03;36.70;29.40
82126;DHT22;71668;51.400;6.758;2023-07-29T08:14:30;36.60;29.70
82126;DHT22;71668;51.400;6.758;2023-07-29T08:16:57;36.50;30.00
82126;DHT22;71668;51.400;6.758;2023-07-29T08:19:24;36.30;29.90
82126;DHT22;71668;51.400;6.758;2023-07-29T08:21:51;37.00;29.60
82126;DHT22;71668;51.400;6.758;2023-07-29T08:24:18;37.80;29.00
82126;DHT22;71668;51.400;6.758;2023-07-29T08:26:46;38.10;28.50
82126;DHT22;71668;51.400;6.758;2023-07-29T08:29:13;38.80;28.10
82126;DHT22;71668;51.400;6.758;2023-07-29T08:31:39;39.40;27.60
82126;DHT22;71668;51.400;6.758;2023-07-29T08:34:06;39.70;27.10
82126;DHT22;71668;51.400;6.758;2023-07-29T08:36:33;39.80;26.70
82126;DHT22;71668;51.400;6.758;2023-07-29T08:39:01;40.10;26.30
82126;DHT22;71668;51.400;6.758;2023-07-29T08:41:46;40.10;26.50
82126;DHT22;71668;51.400;6.758;2023-07-29T08:44:22;39.80;26.70
82126;DHT22;71668;51.400;6.758;2023-07-29T08:46:50;39.60;26.80
82126;DHT22;71668;51.400;6.758;2023-07-29T08:49:21;40.20;26.60
82126;DHT22;71668;51.400;6.758;2023-07-29T08:51:50;40.00;26.30
82126;DHT22;71668;51.400;6.758;2023-07-29T08:54:19;39.60;26.30
82126;DHT22;71668;51.400;6.758;2023-07-29T08:56:46;38.60;26.90
82126;DHT22;71668;51.400;6.758;2023-07-29T08:59:13;37.40;27.90
82126;DHT22;71668;51.400;6.758;2023-07-29T09:01:41;36.10;28.70
82126;DHT22;71668;51.400;6.758;2023-07-29T09:04:08;35.30;29.70
82126;DHT22;71668;51.400;6.758;2023-07-29T09:06:36;34.10;30.70
82126;DHT22;71668;51.400;6.758;2023-07-29T09:09:07;33.00;31.80
82126;DHT22;71668;51.400;6.758;2023-07-29T09:11:35;31.80;33.50
82126;DHT22;71668;51.400;6.758;2023-07-29T09:14:02;30.80;35.10
82126;DHT22;71668;51.400;6.758;2023-07-29T09:16:29;30.20;36.20
82126;DHT22;71668;51.400;6.758;2023-07-29T09:19:01;29.50;37.10
82126;DHT22;71668;51.400;6.758;2023-07-29T09:21:28;28.70;38.50
82126;DHT22;71668;51.400;6.758;2023-07-29T09:23:55;28.10;39.70
82126;DHT22;71668;51.400;6.758;2023-07-29T09:26:27;27.80;40.70
82126;DHT22;71668;51.400;6.758;2023-07-29T09:28:59;27.70;41.10
82126;DHT22;71668;51.400;6.758;2023-07-29T09:31:27;27.80;41.20
82126;DHT22;71668;51.400;6.758;2023-07-29T09:34:03;27.50;41.50
82126;DHT22;71668;51.400;6.758;2023-07-29T09:36:32;27.20;42.10
82126;DHT22;71668;51.400;6.758;2023-07-29T09:38:59;27.00;42.70
82126;DHT22;71668;51.400;6.758;2023-07-29T09:41:27;26.70;43.00
82126;DHT22;71668;51.400;6.758;2023-07-29T09:43:59;26.50;43.60
82126;DHT22;71668;51.400;6.758;2023-07-29T09:46:32;26.60;43.90
82126;DHT22;71668;51.400;6.758;2023-07-29T09:49:01;27.30;43.20
82126;DHT22;71668;51.400;6.758;2023-07-29T09:51:28;27.80;42.30
82126;DHT22;71668;51.400;6.758;2023-07-29T09:53:55;28.10;41.70
82126;DHT22;71668;51.400;6.758;2023-07-29T09:56:26;28.60;40.80
82126;DHT22;71668;51.400;6.758;2023-07-29T09:58:55;29.50;39.30
82126;DHT22;71668;51.400;6.758;2023-07-29T10:01:23;30.30;37.80
82126;DHT22;71668;51.400;6.758;2023-07-29T10:03:50;32.70;35.20
82126;DHT22;71668;51.400;6.758;2023-07-29T10:06:18;35.10;31.80
82126;DHT22;71668;51.400;6.758;2023-07-29T10:08:45;37.00;30.00
82126;DHT22;71668;51.400;6.758;2023-07-29T10:11:14;37.90;28.90
82126;DHT22;71668;51.400;6.758;2023-07-29T10:13:41;37.90;28.10
82126;DHT22;71668;51.400;6.758;2023-07-29T10:16:15;39.10;27.50
82126;DHT22;71668;51.400;6.758;2023-07-29T10:18:43;38.60;27.30
82126;DHT22;71668;51.400;6.758;2023-07-29T10:21:11;36.80;28.30
82126;DHT22;71668;51.400;6.758;2023-07-29T10:23:42;35.70;29.50
82126;DHT22;71668;51.400;6.758;2023-07-29T10:26:13;34.50;30.50
82126;DHT22;71668;51.400;6.758;2023-07-29T10:28:47;33.10;32.30
82126;DHT22;71668;51.400;6.758;2023-07-29T10:31:16;31.90;33.90
82126;DHT22;71668;51.400;6.758;2023-07-29T10:33:44;31.10;35.10
82126;DHT22;71668;51.400;6.758;2023-07-29T10:36:11;30.50;36.20
82126;DHT22;71668;51.400;6.758;2023-07-29T10:38:38;32.40;34.60
82126;DHT22;71668;51.400;6.758;2023-07-29T10:41:05;35.60;30.80
82126;DHT22;71668;51.400;6.758;2023-07-29T10:43:35;37.20;28.80
82126;DHT22;71668;51.400;6.758;2023-07-29T10:46:20;37.90;28.00
82126;DHT22;71668;51.400;6.758;2023-07-29T10:54:04;37.70;28.60
82126;DHT22;71668;51.400;6.758;2023-07-29T10:56:33;37.10;28.30
82126;DHT22;71668;51.400;6.758;2023-07-29T10:59:31;36.50;29.00
82126;DHT22;71668;51.400;6.758;2023-07-29T11:02:00;35.80;29.40
82126;DHT22;71668;51.400;6.758;2023-07-29T11:04:28;36.20;28.80
82126;DHT22;71668;51.400;6.758;2023-07-29T11:12:38;32.70;32.60
82126;DHT22;71668;51.400;6.758;2023-07-29T11:17:44;30.30;35.80
82126;DHT22;71668;51.400;6.758;2023-07-29T11:20:12;29.60;36.80
82126;DHT22;71668;51.400;6.758;2023-07-29T11:22:40;29.20;37.80
82126;DHT22;71668;51.400;6.758;2023-07-29T11:25:10;28.80;38.40
82126;DHT22;71668;51.400;6.758;2023-07-29T11:27:38;28.50;39.00
82126;DHT22;71668;51.400;6.758;2023-07-29T11:30:07;28.20;39.70
82126;DHT22;71668;51.400;6.758;2023-07-29T11:32:36;28.20;40.20
82126;DHT22;71668;51.400;6.758;2023-07-29T11:35:08;28.60;39.90
82126;DHT22;71668;51.400;6.758;2023-07-29T11:37:38;28.80;39.30
82126;DHT22;71668;51.400;6.758;2023-07-29T11:40:06;29.20;38.90
82126;DHT22;71668;51.400;6.758;2023-07-29T11:42:34;29.20;38.80
82126;DHT22;71668;51.400;6.758;2023-07-29T11:45:02;29.10;38.70
82126;DHT22;71668;51.400;6.758;2023-07-29T11:47:30;29.00;38.80
82126;DHT22;71668;51.400;6.758;2023-07-29T11:50:03;29.00;38.50
82126;DHT22;71668;51.400;6.758;2023-07-29T11:52:32;28.90;38.30
82126;DHT22;71668;51.400;6.758;2023-07-29T11:55:02;28.80;38.10
82126;DHT22;71668;51.400;6.758;2023-07-29T11:57:30;28.80;38.50
82126;DHT22;71668;51.400;6.758;2023-07-29T11:59:58;28.70;37.90
82126;DHT22;71668;51.400;6.758;2023-07-29T12:02:25;28.60;38.60
82126;DHT22;71668;51.400;6.758;2023-07-29T12:04:53;28.60;38.40
82126;DHT22;71668;51.400;6.758;2023-07-29T12:07:20;28.40;38.80
82126;DHT22;71668;51.400;6.758;2023-07-29T12:09:47;28.10;38.50
82126;DHT22;71668;51.400;6.758;2023-07-29T12:12:15;28.00;38.70
82126;DHT22;71668;51.400;6.758;2023-07-29T12:14:46;27.90;38.90
82126;DHT22;71668;51.400;6.758;2023-07-29T12:17:15;28.10;39.30
82126;DHT22;71668;51.400;6.758;2023-07-29T12:19:42;28.30;38.90
82126;DHT22;71668;51.400;6.758;2023-07-29T12:22:10;28.50;38.70
82126;DHT22;71668;51.400;6.758;2023-07-29T12:24:39;28.50;38.60
82126;DHT22;71668;51.400;6.758;2023-07-29T12:27:10;28.50;38.40
82126;DHT22;71668;51.400;6.758;2023-07-29T12:29:44;28.20;39.00
82126;DHT22;71668;51.400;6.758;2023-07-29T12:32:18;27.90;40.10
82126;DHT22;71668;51.400;6.758;2023-07-29T12:34:57;27.80;40.80
82126;DHT22;71668;51.400;6.758;2023-07-29T12:37:32;27.70;41.10
82126;DHT22;71668;51.400;6.758;2023-07-29T12:40:00;27.70;41.10
82126;DHT22;71668;51.400;6.758;2023-07-29T12:42:27;27.70;41.60
82126;DHT22;71668;51.400;6.758;2023-07-29T12:44:54;27.50;41.60
82126;DHT22;71668;51.400;6.758;2023-07-29T12:47:21;27.40;42.00
82126;DHT22;71668;51.400;6.758;2023-07-29T12:49:48;27.50;41.90
82126;DHT22;71668;51.400;6.758;2023-07-29T12:52:24;27.70;41.60
82126;DHT22;71668;51.400;6.758;2023-07-29T12:54:58;28.10;40.90
82126;DHT22;71668;51.400;6.758;2023-07-29T12:57:27;28.40;40.30
82126;DHT22;71668;51.400;6.758;2023-07-29T12:59:54;28.50;39.50
82126;DHT22;71668;51.400;6.758;2023-07-29T13:02:27;28.60;39.30
82126;DHT22;71668;51.400;6.758;2023-07-29T13:04:57;28.80;38.70
82126;DHT22;71668;51.400;6.758;2023-07-29T13:07:24;28.80;38.90
82126;DHT22;71668;51.400;6.758;2023-07-29T13:09:51;28.80;39.40
82126;DHT22;71668;51.400;6.758;2023-07-29T13:12:20;28.90;39.60
82126;DHT22;71668;51.400;6.758;2023-07-29T13:14:47;29.00;39.20
82126;DHT22;71668;51.400;6.758;2023-07-29T13:17:25;28.90;38.80
82126;DHT22;71668;51.400;6.758;2023-07-29T13:19:51;28.70;39.20
82126;DHT22;71668;51.400;6.758;2023-07-29T13:22:20;28.40;39.80
82126;DHT22;71668;51.400;6.758;2023-07-29T13:24:47;27.90;40.20
82126;DHT22;71668;51.400;6.758;2023-07-29T13:27:13;27.50;40.90
82126;DHT22;71668;51.400;6.758;2023-07-29T13:29:40;27.10;41.90
82126;DHT22;71668;51.400;6.758;2023-07-29T13:32:08;26.80;42.50
82126;DHT22;71668;51.400;6.758;2023-07-29T13:34:35;26.50;43.00
82126;DHT22;71668;51.400;6.758;2023-07-29T13:37:02;26.30;43.60
82126;DHT22;71668;51.400;6.758;2023-07-29T13:39:28;26.10;44.40
82126;DHT22;71668;51.400;6.758;2023-07-29T13:41:55;25.90;45.60
82126;DHT22;71668;51.400;6.758;2023-07-29T13:44:22;25.70;46.50
82126;DHT22;71668;51.400;6.758;2023-07-29T13:46:49;25.60;47.40
82126;DHT22;71668;51.400;6.758;2023-07-29T13:49:15;25.50;48.50
82126;DHT22;71668;51.400;6.758;2023-07-29T13:51:42;25.30;49.40
82126;DHT22;71668;51.400;6.758;2023-07-29T13:54:09;25.10;49.90
82126;DHT22;71668;51.400;6.758;2023-07-29T13:56:36;25.00;50.80
82126;DHT22;71668;51.400;6.758;2023-07-29T13:59:03;24.90;51.90
82126;DHT22;71668;51.400;6.758;2023-07-29T14:01:30;24.80;52.50
82126;DHT22;71668;51.400;6.758;2023-07-29T14:03:57;24.80;53.20
82126;DHT22;71668;51.400;6.758;2023-07-29T14:06:24;24.80;53.80
82126;DHT22;71668;51.400;6.758;2023-07-29T14:09:10;24.80;54.20
82126;DHT22;71668;51.400;6.758;2023-07-29T14:11:37;24.90;53.80
82126;DHT22;71668;51.400;6.758;2023-07-29T14:14:04;25.20;53.40
82126;DHT22;71668;51.400;6.758;2023-07-29T14:16:31;25.60;52.50
82126;DHT22;71668;51.400;6.758;2023-07-29T14:19:01;26.10;51.30
82126;DHT22;71668;51.400;6.758;2023-07-29T14:21:27;26.70;50.30
82126;DHT22;71668;51.400;6.758;2023-07-29T14:23:54;27.20;49.20
82126;DHT22;71668;51.400;6.758;2023-07-29T14:26:21;27.70;48.10
82126;DHT22;71668;51.400;6.758;2023-07-29T14:28:49;27.90;47.70
82126;DHT22;71668;51.400;6.758;2023-07-29T14:31:17;27.80;47.40
82126;DHT22;71668;51.400;6.758;2023-07-29T14:33:44;27.70;47.90
82126;DHT22;71668;51.400;6.758;2023-07-29T14:36:11;27.40;48.50
82126;DHT22;71668;51.400;6.758;2023-07-29T14:38:38;27.10;49.20
82126;DHT22;71668;51.400;6.758;2023-07-29T14:41:04;26.70;50.10
82126;DHT22;71668;51.400;6.758;2023-07-29T14:43:31;26.50;50.70
82126;DHT22;71668;51.400;6.758;2023-07-29T14:45:58;26.20;51.30
82126;DHT22;71668;51.400;6.758;2023-07-29T14:48:25;26.00;51.80
82126;DHT22;71668;51.400;6.758;2023-07-29T14:50:52;26.00;52.40
82126;DHT22;71668;51.400;6.758;2023-07-29T14:53:19;25.90;51.70
82126;DHT22;71668;51.400;6.758;2023-07-29T14:55:46;25.90;51.10
82126;DHT22;71668;51.400;6.758;2023-07-29T14:58:34;25.80;50.80
82126;DHT22;71668;51.400;6.758;2023-07-29T15:01:01;25.70;50.30
82126;DHT22;71668;51.400;6.758;2023-07-29T15:03:28;25.60;50.30
82126;DHT22;71668;51.400;6.758;2023-07-29T15:05:55;25.50;50.30
82126;DHT22;71668;51.400;6.758;2023-07-29T15:08:22;25.50;50.50
82126;DHT22;71668;51.400;6.758;2023-07-29T15:10:49;25.50;50.60
82126;DHT22;71668;51.400;6.758;2023-07-29T15:13:16;25.60;50.40
82126;DHT22;71668;51.400;6.758;2023-07-29T15:15:43;25.80;50.20
82126;DHT22;71668;51.400;6.758;2023-07-29T15:18:10;26.00;50.00
82126;DHT22;71668;51.400;6.758;2023-07-29T15:20:37;26.30;48.90
82126;DHT22;71668;51.400;6.758;2023-07-29T15:23:04;26.50;48.20
82126;DHT22;71668;51.400;6.758;2023-07-29T15:25:31;26.80;47.40
82126;DHT22;71668;51.400;6.758;2023-07-29T15:27:57;26.80;46.90
82126;DHT22;71668;51.400;6.758;2023-07-29T15:30:24;26.80;46.70
82126;DHT22;71668;51.400;6.758;2023-07-29T15:32:53;26.80;46.10
82126;DHT22;71668;51.400;6.758;2023-07-29T15:35:22;26.90;45.60
82126;DHT22;71668;51.400;6.758;2023-07-29T15:37:48;26.80;45.30
82126;DHT22;71668;51.400;6.758;2023-07-29T15:40:15;26.60;45.40
82126;DHT22;71668;51.400;6.758;2023-07-29T15:42:43;26.40;45.50
82126;DHT22;71668;51.400;6.758;2023-07-29T15:45:10;26.10;45.60
82126;DHT22;71668;51.400;6.758;2023-07-29T15:47:37;25.90;46.20
82126;DHT22;71668;51.400;6.758;2023-07-29T15:50:04;25.70;46.80
82126;DHT22;71668;51.400;6.758;2023-07-29T15:52:31;25.60;47.20
82126;DHT22;71668;51.400;6.758;2023-07-29T15:54:58;25.60;47.60